createdAt,value
2022-11-21T00:01:26.022Z,20.30
2022-11-21T00:03:53.013Z,19.63
2022-11-21T00:06:20.632Z,18.67
2022-11-21T00:08:47.893Z,20.77
2022-11-21T00:11:14.929Z,20.53
2022-11-21T00:13:42.209Z,17.10
2022-11-21T00:16:15.401Z,17.43
2022-11-21T00:18:44.104Z,19.23
2022-11-21T00:21:15.997Z,19.33
2022-11-21T00:23:47.121Z,18.30
2022-11-21T00:26:16.256Z,21.07
2022-11-21T00:28:43.170Z,19.27
2022-11-21T00:31:18.894Z,19.90
2022-11-21T00:33:45.834Z,16.87
2022-11-21T00:36:12.684Z,17.47
2022-11-21T00:38:40.005Z,18.63
2022-11-21T00:41:07.038Z,22.27
2022-11-21T00:43:34.851Z,21.90
2022-11-21T00:46:03.114Z,20.57
2022-11-21T00:48:31.676Z,21.50
2022-11-21T00:51:00.507Z,21.57
2022-11-21T00:53:27.884Z,18.63
2022-11-21T00:55:54.819Z,14.17
2022-11-21T00:58:21.957Z,19.40
2022-11-21T01:00:48.937Z,15.77
2022-11-21T01:03:16.049Z,14.10
2022-11-21T01:05:43.404Z,16.97
2022-11-21T01:08:10.281Z,15.80
2022-11-21T01:10:37.276Z,18.83
2022-11-21T01:13:04.167Z,23.93
2022-11-21T01:15:31.150Z,20.60
2022-11-21T01:17:58.161Z,18.20
2022-11-21T01:20:25.032Z,15.33
2022-11-21T01:22:51.958Z,17.70
2022-11-21T01:25:19.046Z,16.93
2022-11-21T01:27:45.910Z,17.13
2022-11-21T01:30:14.487Z,15.80
2022-11-21T01:32:41.368Z,19.50
2022-11-21T01:35:08.618Z,19.33
2022-11-21T01:37:35.852Z,21.23
2022-11-21T01:40:03.278Z,14.57
2022-11-21T01:42:30.233Z,14.20
2022-11-21T01:44:57.122Z,14.47
2022-11-21T01:47:24.052Z,14.93
2022-11-21T01:49:52.508Z,16.67
2022-11-21T01:52:30.982Z,17.07
2022-11-21T01:55:06.864Z,15.53
2022-11-21T01:57:43.669Z,16.87
2022-11-21T02:00:21.959Z,17.83
2022-11-21T02:02:55.349Z,15.70
2022-11-21T02:05:35.894Z,17.70
2022-11-21T02:08:07.908Z,16.20
2022-11-21T02:10:38.172Z,16.43
2022-11-21T02:13:05.224Z,17.40
2022-11-21T02:15:32.204Z,17.60
2022-11-21T02:17:59.126Z,14.13
2022-11-21T02:20:29.091Z,18.60
2022-11-21T02:23:26.729Z,18.10
2022-11-21T02:25:54.170Z,16.17
2022-11-21T02:28:25.485Z,16.50
2022-11-21T02:30:52.556Z,18.80
2022-11-21T02:33:20.225Z,18.23
2022-11-21T02:35:57.915Z,18.90
2022-11-21T02:38:31.953Z,18.50
2022-11-21T02:41:28.545Z,16.93
2022-11-21T02:44:18.482Z,18.60
2022-11-21T02:46:51.940Z,17.93
2022-11-21T02:49:34.922Z,14.40
2022-11-21T02:52:02.210Z,16.33
2022-11-21T02:54:29.739Z,14.23
2022-11-21T02:56:57.525Z,16.80
2022-11-21T02:59:24.560Z,17.43
2022-11-21T03:01:51.910Z,15.77
2022-11-21T03:04:19.238Z,16.33
2022-11-21T03:06:46.145Z,14.50
2022-11-21T03:09:13.134Z,18.07
2022-11-21T03:11:40.407Z,16.23
2022-11-21T03:14:07.708Z,17.30
2022-11-21T03:16:34.953Z,19.13
2022-11-21T03:19:01.846Z,19.00
2022-11-21T03:21:28.741Z,17.27
2022-11-21T03:23:55.797Z,19.97
2022-11-21T03:26:22.799Z,16.50
2022-11-21T03:28:49.636Z,13.93
2022-11-21T03:31:16.952Z,16.10
2022-11-21T03:33:44.236Z,16.53
2022-11-21T03:36:11.181Z,16.17
2022-11-21T03:38:38.452Z,16.20
2022-11-21T03:41:26.423Z,17.20
2022-11-21T03:43:53.743Z,15.93
2022-11-21T03:46:21.043Z,17.27
2022-11-21T03:48:47.985Z,14.80
2022-11-21T03:51:15.293Z,16.07
2022-11-21T03:53:42.304Z,14.83
2022-11-21T03:56:09.811Z,15.87
2022-11-21T03:58:36.986Z,17.97
2022-11-21T04:01:04.625Z,17.63
2022-11-21T04:03:32.432Z,22.40
2022-11-21T04:05:59.338Z,14.60
2022-11-21T04:08:27.109Z,17.43
2022-11-21T04:10:55.021Z,19.80
2022-11-21T04:13:22.455Z,16.17
2022-11-21T04:15:49.953Z,16.83
2022-11-21T04:18:17.100Z,18.40
2022-11-21T04:20:45.144Z,19.37
2022-11-21T04:23:12.707Z,18.00
2022-11-21T04:25:40.311Z,15.83
2022-11-21T04:28:07.886Z,16.20
2022-11-21T04:30:35.052Z,15.87
2022-11-21T04:33:02.429Z,16.30
2022-11-21T04:35:29.271Z,18.77
2022-11-21T04:37:56.593Z,16.03
2022-11-21T04:40:23.693Z,20.00
2022-11-21T04:42:51.066Z,17.30
2022-11-21T04:45:18.309Z,21.03
2022-11-21T04:47:46.770Z,16.17
2022-11-21T04:50:16.265Z,15.80
2022-11-21T04:52:48.852Z,16.37
2022-11-21T04:55:16.132Z,19.57
2022-11-21T04:57:42.998Z,15.73
2022-11-21T05:00:10.507Z,17.40
2022-11-21T05:02:37.514Z,18.13
2022-11-21T05:05:05.044Z,20.90
2022-11-21T05:07:32.371Z,16.70
2022-11-21T05:09:59.266Z,14.73
2022-11-21T05:12:45.076Z,19.40
2022-11-21T05:15:12.019Z,14.63
2022-11-21T05:17:39.338Z,14.13
2022-11-21T05:20:07.570Z,15.67
2022-11-21T05:22:34.807Z,16.50
2022-11-21T05:25:02.035Z,17.13
2022-11-21T05:27:28.935Z,14.57
2022-11-21T05:29:56.318Z,15.57
2022-11-21T05:32:23.324Z,17.63
2022-11-21T05:34:50.763Z,18.00
2022-11-21T05:37:18.214Z,16.80
2022-11-21T05:39:45.152Z,16.30
2022-11-21T05:42:12.190Z,18.13
2022-11-21T05:44:39.463Z,20.20
2022-11-21T05:47:06.376Z,39.33
2022-11-21T05:49:33.292Z,51.03
2022-11-21T05:52:00.098Z,62.53
2022-11-21T05:54:27.610Z,31.10
2022-11-21T05:56:54.672Z,19.60
2022-11-21T05:59:21.484Z,17.23
2022-11-21T06:02:06.660Z,13.73
2022-11-21T06:04:34.905Z,14.57
2022-11-21T06:07:01.878Z,17.80
2022-11-21T06:09:29.414Z,17.20
2022-11-21T06:11:56.634Z,14.97
2022-11-21T06:14:23.492Z,15.73
2022-11-21T06:16:50.909Z,16.20
2022-11-21T06:19:17.799Z,14.90
2022-11-21T06:21:44.692Z,18.00
2022-11-21T06:24:12.243Z,15.40
2022-11-21T06:26:39.192Z,15.53
2022-11-21T06:29:06.052Z,15.10
2022-11-21T06:31:33.362Z,16.70
2022-11-21T06:34:00.713Z,15.70
2022-11-21T06:36:27.717Z,19.37
2022-11-21T06:38:56.143Z,15.50
2022-11-21T06:41:25.782Z,18.20
2022-11-21T06:43:53.328Z,19.83
2022-11-21T06:46:20.263Z,20.50
2022-11-21T06:48:47.560Z,19.17
2022-11-21T06:51:19.652Z,16.57
2022-11-21T06:53:48.311Z,18.13
2022-11-21T06:56:15.835Z,18.20
2022-11-21T06:58:42.763Z,20.40
2022-11-21T07:01:11.042Z,17.03
2022-11-21T07:03:38.027Z,17.33
2022-11-21T07:06:06.279Z,17.60
2022-11-21T07:08:38.003Z,17.27
2022-11-21T07:11:24.742Z,18.33
2022-11-21T07:13:52.878Z,15.97
2022-11-21T07:16:20.191Z,16.70
2022-11-21T07:18:47.485Z,17.80
2022-11-21T07:21:14.856Z,14.17
2022-11-21T07:23:42.172Z,18.43
2022-11-21T07:26:10.485Z,98.93
2022-11-21T07:28:37.420Z,28.80
2022-11-21T07:31:10.008Z,18.77
2022-11-21T07:33:40.030Z,17.60
2022-11-21T07:36:07.474Z,15.90
2022-11-21T07:38:34.796Z,19.13
2022-11-21T07:41:01.691Z,17.00
2022-11-21T07:43:28.574Z,15.57
2022-11-21T07:45:56.562Z,13.50
2022-11-21T07:48:23.924Z,13.83
2022-11-21T07:50:50.785Z,15.10
2022-11-21T07:53:18.188Z,15.17
2022-11-21T07:55:45.084Z,14.00
2022-11-21T07:58:15.233Z,12.40
2022-11-21T08:00:43.057Z,10.43
2022-11-21T08:03:12.142Z,11.03
2022-11-21T08:05:41.869Z,13.10
2022-11-21T08:08:10.807Z,12.70
2022-11-21T08:10:44.272Z,16.03
2022-11-21T08:13:12.352Z,13.10
2022-11-21T08:15:40.307Z,11.57
2022-11-21T08:18:20.547Z,21.63
2022-11-21T08:20:47.826Z,14.67
2022-11-21T08:23:15.194Z,15.37
2022-11-21T08:25:43.006Z,13.73
2022-11-21T08:28:12.223Z,17.70
2022-11-21T08:30:40.769Z,13.00
2022-11-21T08:33:08.187Z,10.57
2022-11-21T08:35:40.263Z,11.90
2022-11-21T08:38:07.204Z,25.20
2022-11-21T08:40:35.369Z,14.20
2022-11-21T08:43:08.805Z,15.57
2022-11-21T08:45:37.670Z,12.07
2022-11-21T08:48:10.029Z,12.67
2022-11-21T08:50:36.993Z,13.87
2022-11-21T08:53:04.088Z,12.90
2022-11-21T08:55:31.428Z,16.47
2022-11-21T08:57:58.872Z,12.13
2022-11-21T09:00:26.257Z,16.07
2022-11-21T09:02:53.271Z,12.47
2022-11-21T09:05:20.217Z,13.30
2022-11-21T09:07:48.386Z,14.40
2022-11-21T09:10:15.784Z,13.50
2022-11-21T09:12:43.220Z,13.40
2022-11-21T09:15:30.239Z,11.63
2022-11-21T09:18:04.534Z,11.90
2022-11-21T09:20:34.049Z,13.97
2022-11-21T09:23:19.424Z,19.33
2022-11-21T09:25:47.210Z,15.87
2022-11-21T09:28:15.133Z,17.90
2022-11-21T09:30:43.043Z,15.13
2022-11-21T09:33:16.984Z,17.80
2022-11-21T09:35:44.289Z,13.83
2022-11-21T09:38:11.486Z,18.40
2022-11-21T09:40:46.514Z,14.47
2022-11-21T09:44:02.058Z,19.50
2022-11-21T09:46:37.251Z,17.73
2022-11-21T09:49:12.277Z,13.63
2022-11-21T09:51:41.356Z,18.83
2022-11-21T09:54:21.378Z,15.70
2022-11-21T09:56:48.814Z,14.63
2022-11-21T09:59:29.742Z,12.80
2022-11-21T10:01:57.561Z,12.73
2022-11-21T10:04:26.642Z,16.50
2022-11-21T10:07:03.854Z,16.03
2022-11-21T10:09:55.103Z,19.33
2022-11-21T10:12:40.702Z,71.20
2022-11-21T10:15:31.919Z,17.90
2022-11-21T10:18:31.937Z,13.43
2022-11-21T10:21:30.658Z,12.43
2022-11-21T10:24:24.773Z,19.30
2022-11-21T10:27:15.159Z,16.70
2022-11-21T10:29:57.833Z,12.03
2022-11-21T10:32:41.704Z,14.10
2022-11-21T10:35:35.964Z,12.40
2022-11-21T10:38:31.204Z,12.13
2022-11-21T10:41:09.392Z,13.63
2022-11-21T10:44:02.776Z,13.17
2022-11-21T10:46:29.657Z,10.80
2022-11-21T10:49:00.860Z,10.50
2022-11-21T10:51:45.575Z,11.83
2022-11-21T10:54:32.383Z,16.23
2022-11-21T10:57:18.923Z,11.70
2022-11-21T11:00:12.371Z,13.17
2022-11-21T11:03:06.134Z,11.60
2022-11-21T11:05:36.387Z,13.90
2022-11-21T11:08:13.002Z,66.23
2022-11-21T11:10:45.997Z,52.03
2022-11-21T11:13:50.871Z,77.00
2022-11-21T11:16:21.850Z,18.43
2022-11-21T11:19:03.296Z,16.33
2022-11-21T11:21:41.932Z,11.40
2022-11-21T11:24:12.087Z,13.20
2022-11-21T11:26:49.284Z,13.57
2022-11-21T11:29:23.459Z,13.50
2022-11-21T11:31:59.499Z,17.10
2022-11-21T11:34:42.266Z,14.83
2022-11-21T11:37:15.204Z,16.40
2022-11-21T11:39:50.700Z,11.40
2022-11-21T11:43:16.765Z,12.90
2022-11-21T11:46:36.319Z,14.10
2022-11-21T11:49:20.908Z,11.23
2022-11-21T11:51:54.824Z,11.10
2022-11-21T11:54:38.191Z,11.93
2022-11-21T11:57:05.405Z,14.87
2022-11-21T11:59:42.619Z,13.23
2022-11-21T12:02:20.193Z,12.33
2022-11-21T12:05:09.600Z,13.50
2022-11-21T12:11:01.366Z,11.93
2022-11-21T12:13:30.092Z,11.83
2022-11-21T12:16:07.165Z,13.37
2022-11-21T12:19:08.222Z,12.17
2022-11-21T12:21:35.142Z,12.07
2022-11-21T12:24:08.464Z,12.50
2022-11-21T12:26:50.653Z,13.13
2022-11-21T12:29:45.247Z,11.10
2022-11-21T12:32:25.397Z,13.90
2022-11-21T12:35:22.823Z,37.70
2022-11-21T12:38:13.914Z,33.33
2022-11-21T12:40:56.784Z,22.90
2022-11-21T12:43:57.687Z,15.20
2022-11-21T12:46:36.189Z,14.23
2022-11-21T12:49:56.249Z,12.70
2022-11-21T12:52:58.792Z,15.20
2022-11-21T12:55:41.745Z,12.90
2022-11-21T12:58:32.653Z,15.80
2022-11-21T13:01:21.979Z,14.90
2022-11-21T13:04:06.212Z,14.47
2022-11-21T13:06:40.486Z,13.80
2022-11-21T13:09:15.031Z,13.90
2022-11-21T13:12:00.211Z,11.57
2022-11-21T13:14:57.866Z,12.20
2022-11-21T13:17:45.648Z,13.00
2022-11-21T13:20:23.712Z,13.93
2022-11-21T13:22:59.474Z,11.80
2022-11-21T13:25:32.541Z,18.47
2022-11-21T13:28:17.504Z,16.30
2022-11-21T13:30:56.268Z,15.67
2022-11-21T13:33:35.429Z,13.73
2022-11-21T13:36:30.121Z,15.23
2022-11-21T13:39:16.843Z,16.63
2022-11-21T13:42:05.108Z,16.00
2022-11-21T13:44:32.054Z,15.93
2022-11-21T13:47:29.975Z,15.27
2022-11-21T13:50:28.441Z,14.20
2022-11-21T13:53:18.543Z,14.93
2022-11-21T13:55:55.893Z,14.73
2022-11-21T13:58:22.628Z,17.53
2022-11-21T14:01:23.422Z,14.87
2022-11-21T14:04:31.772Z,18.07
2022-11-21T14:07:23.391Z,13.80
2022-11-21T14:09:53.507Z,20.47
2022-11-21T14:12:44.766Z,15.90
2022-11-21T14:15:43.780Z,17.70
2022-11-21T14:18:25.387Z,19.07
2022-11-21T14:21:00.935Z,19.80
2022-11-21T14:23:33.441Z,20.13
2022-11-21T14:26:05.092Z,15.63
2022-11-21T14:28:34.793Z,17.00
2022-11-21T14:31:07.552Z,17.13
2022-11-21T14:33:36.413Z,18.30
2022-11-21T14:36:25.993Z,14.73
2022-11-21T14:39:34.712Z,15.57
2022-11-21T14:41:50.142Z,17.73
2022-11-21T14:44:19.816Z,16.50
2022-11-21T14:46:48.183Z,18.13
2022-11-21T14:49:17.732Z,15.33
2022-11-21T14:51:48.897Z,17.97
2022-11-21T14:54:30.778Z,17.40
2022-11-21T14:57:01.828Z,17.30
2022-11-21T14:59:33.201Z,15.57
2022-11-21T15:02:20.633Z,18.53
2022-11-21T15:04:51.048Z,15.40
2022-11-21T15:07:31.617Z,15.27
2022-11-21T15:13:11.678Z,17.60
2022-11-21T15:15:43.872Z,18.97
2022-11-21T15:18:41.108Z,17.40
2022-11-21T15:21:13.642Z,16.83
2022-11-21T15:23:43.003Z,18.17
2022-11-21T15:26:32.549Z,20.53
2022-11-21T15:29:00.995Z,20.23
2022-11-21T15:31:28.075Z,23.90
2022-11-21T15:34:34.802Z,23.10
2022-11-21T15:37:08.485Z,23.00
2022-11-21T15:39:36.073Z,18.37
2022-11-21T15:42:37.526Z,20.90
2022-11-21T15:45:25.612Z,20.77
2022-11-21T15:47:53.112Z,23.67
2022-11-21T15:50:24.508Z,18.30
2022-11-21T15:52:52.650Z,21.17
2022-11-21T15:55:29.088Z,22.13
2022-11-21T15:57:56.035Z,20.97
2022-11-21T16:00:23.144Z,25.00
2022-11-21T16:02:50.107Z,22.37
2022-11-21T16:05:16.966Z,21.40
2022-11-21T16:07:44.010Z,19.57
2022-11-21T16:10:18.263Z,22.87
2022-11-21T16:12:48.621Z,22.07
2022-11-21T16:15:15.667Z,25.17
2022-11-21T16:17:45.749Z,18.80
2022-11-21T16:20:14.417Z,19.37
2022-11-21T16:22:47.156Z,19.30
2022-11-21T16:25:15.425Z,23.17
2022-11-21T16:27:42.432Z,22.73
2022-11-21T16:30:09.873Z,21.57
2022-11-21T16:32:36.882Z,31.53
2022-11-21T16:35:05.443Z,23.83
2022-11-21T16:37:33.136Z,24.13
2022-11-21T16:40:00.182Z,23.47
2022-11-21T16:42:27.130Z,21.40
2022-11-21T16:44:54.016Z,28.57
2022-11-21T16:47:21.715Z,27.27
2022-11-21T16:49:49.481Z,23.33
2022-11-21T16:52:18.238Z,18.90
2022-11-21T16:54:45.289Z,23.63
2022-11-21T16:57:12.282Z,20.03
2022-11-21T16:59:39.212Z,19.27
2022-11-21T17:02:06.170Z,19.43
2022-11-21T17:04:34.875Z,24.17
2022-11-21T17:07:02.590Z,23.20
2022-11-21T17:09:29.534Z,24.13
2022-11-21T17:11:59.490Z,21.80
2022-11-21T17:14:26.786Z,22.00
2022-11-21T17:16:54.118Z,26.23
2022-11-21T17:19:21.084Z,22.80
2022-11-21T17:21:47.926Z,27.40
2022-11-21T17:24:15.025Z,20.67
2022-11-21T17:26:41.939Z,24.60
2022-11-21T17:29:09.673Z,23.63
2022-11-21T17:31:36.561Z,27.40
2022-11-21T17:34:03.546Z,23.57
2022-11-21T17:36:34.234Z,26.93
2022-11-21T17:39:01.237Z,27.63
2022-11-21T17:41:28.145Z,25.57
2022-11-21T17:43:59.701Z,27.20
2022-11-21T17:46:28.248Z,26.57
2022-11-21T17:48:58.380Z,28.60
2022-11-21T17:51:34.585Z,31.53
2022-11-21T17:54:02.426Z,31.33
2022-11-21T17:56:33.394Z,31.70
2022-11-21T17:59:01.015Z,30.50
2022-11-21T18:01:28.923Z,29.43
2022-11-21T18:03:57.913Z,35.23
2022-11-21T18:06:28.259Z,33.50
2022-11-21T18:08:58.657Z,30.90
2022-11-21T18:11:34.579Z,35.70
2022-11-21T18:14:06.379Z,38.33
2022-11-21T18:16:34.081Z,31.70
2022-11-21T18:19:01.538Z,33.63
2022-11-21T18:21:31.360Z,30.37
2022-11-21T18:24:00.218Z,31.83
2022-11-21T18:26:30.885Z,31.60
2022-11-21T18:31:50.852Z,34.93
2022-11-21T18:34:17.942Z,28.20
2022-11-21T18:36:45.082Z,31.90
2022-11-21T18:39:15.181Z,32.07
2022-11-21T18:41:43.584Z,32.27
2022-11-21T18:44:13.563Z,33.63
2022-11-21T18:46:43.149Z,27.93
2022-11-21T18:49:10.453Z,33.73
2022-11-21T18:51:37.586Z,30.70
2022-11-21T18:54:08.368Z,28.20
2022-11-21T18:56:37.365Z,35.10
2022-11-21T18:59:06.228Z,32.97
2022-11-21T19:01:34.599Z,34.07
2022-11-21T19:04:01.556Z,32.47
2022-11-21T19:06:29.144Z,36.60
2022-11-21T19:08:58.091Z,32.70
2022-11-21T19:11:28.470Z,30.53
2022-11-21T19:13:57.265Z,38.37
2022-11-21T19:16:27.049Z,34.57
2022-11-21T19:19:26.349Z,31.13
2022-11-21T19:21:42.672Z,28.60
2022-11-21T19:24:14.757Z,27.37
2022-11-21T19:26:42.864Z,28.53
2022-11-21T19:29:10.935Z,33.17
2022-11-21T19:31:44.620Z,31.00
2022-11-21T19:34:16.487Z,32.27
2022-11-21T19:36:45.134Z,29.00
2022-11-21T19:39:13.162Z,35.67
2022-11-21T19:41:40.913Z,35.10
2022-11-21T19:44:08.098Z,42.03
2022-11-21T19:46:38.645Z,38.37
2022-11-21T19:49:07.419Z,35.20
2022-11-21T19:51:38.420Z,33.33
2022-11-21T19:54:11.346Z,31.27
2022-11-21T19:56:38.894Z,28.37
2022-11-21T19:59:05.826Z,50.73
2022-11-21T20:01:34.894Z,60.60
2022-11-21T20:04:04.309Z,45.43
2022-11-21T20:06:38.225Z,36.20
2022-11-21T20:09:15.625Z,31.33
2022-11-21T20:11:45.943Z,28.73
2022-11-21T20:14:19.862Z,26.80
2022-11-21T20:16:49.584Z,26.00
2022-11-21T20:19:19.473Z,29.30
2022-11-21T20:21:47.587Z,29.10
2022-11-21T20:24:15.253Z,31.10
2022-11-21T20:26:42.875Z,27.00
2022-11-21T20:29:13.339Z,30.50
2022-11-21T20:31:40.801Z,29.57
2022-11-21T20:34:12.891Z,32.47
2022-11-21T20:36:40.878Z,29.83
2022-11-21T20:39:17.441Z,31.93
2022-11-21T20:41:46.405Z,35.60
2022-11-21T20:47:07.720Z,27.87
2022-11-21T20:49:35.188Z,31.23
2022-11-21T20:54:49.285Z,26.73
2022-11-21T20:57:16.443Z,30.23
2022-11-21T20:59:43.696Z,24.20
2022-11-21T21:02:12.391Z,27.73
2022-11-21T21:04:39.656Z,26.83
2022-11-21T21:07:06.724Z,24.47
2022-11-21T21:09:33.709Z,28.60
2022-11-21T21:12:01.045Z,28.43
2022-11-21T21:14:28.003Z,24.23
2022-11-21T21:16:55.060Z,33.70
2022-11-21T21:19:22.261Z,27.30
2022-11-21T21:21:49.401Z,30.60
2022-11-21T21:24:17.136Z,75.40
2022-11-21T21:26:47.241Z,57.93
2022-11-21T21:29:18.571Z,34.13
2022-11-21T21:31:51.129Z,29.07
2022-11-21T21:34:20.768Z,24.90
2022-11-21T21:36:48.122Z,28.70
2022-11-21T21:39:15.394Z,28.60
2022-11-21T21:41:47.029Z,23.83
2022-11-21T21:44:15.461Z,27.83
2022-11-21T21:46:42.801Z,27.57
2022-11-21T21:49:10.168Z,21.27
2022-11-21T21:51:37.851Z,20.13
2022-11-21T21:54:06.389Z,20.50
2022-11-21T21:56:34.126Z,23.27
2022-11-21T21:59:01.247Z,20.20
2022-11-21T22:01:31.066Z,19.77
2022-11-21T22:04:01.793Z,22.27
2022-11-21T22:06:29.763Z,20.27
2022-11-21T22:08:57.314Z,24.50
2022-11-21T22:11:33.297Z,21.10
2022-11-21T22:14:04.321Z,17.60
2022-11-21T22:16:31.878Z,20.33
2022-11-21T22:18:59.456Z,19.30
2022-11-21T22:21:37.717Z,22.03
2022-11-21T22:24:25.245Z,20.10
2022-11-21T22:26:53.205Z,24.93
2022-11-21T22:29:20.153Z,20.13
2022-11-21T22:31:47.285Z,21.00
2022-11-21T22:34:14.864Z,20.50
2022-11-21T22:36:43.031Z,22.17
2022-11-21T22:39:10.084Z,22.03
2022-11-21T22:41:37.124Z,23.70
2022-11-21T22:44:04.156Z,25.77
2022-11-21T22:46:32.035Z,22.93
2022-11-21T22:48:59.298Z,21.00
2022-11-21T22:51:29.569Z,20.50
2022-11-21T22:53:57.143Z,22.60
2022-11-21T22:56:25.191Z,21.37
2022-11-21T22:58:52.700Z,22.80
2022-11-21T23:01:23.052Z,21.00
2022-11-21T23:03:50.153Z,24.60
2022-11-21T23:06:21.335Z,21.40
2022-11-21T23:08:48.870Z,20.07
2022-11-21T23:11:19.474Z,21.70
2022-11-21T23:13:47.956Z,21.30
2022-11-21T23:16:16.454Z,22.93
2022-11-21T23:18:43.626Z,21.87
2022-11-21T23:21:11.676Z,20.77
2022-11-21T23:23:38.732Z,26.80
2022-11-21T23:26:06.296Z,20.30
2022-11-21T23:28:33.881Z,22.97
2022-11-21T23:31:00.872Z,24.67
2022-11-21T23:33:28.095Z,21.80
2022-11-21T23:35:55.344Z,21.47
2022-11-21T23:38:22.334Z,26.27
2022-11-21T23:40:50.054Z,23.07
2022-11-21T23:43:20.499Z,19.20
2022-11-21T23:45:52.199Z,26.00
2022-11-21T23:48:20.097Z,26.73
2022-11-21T23:50:48.359Z,20.93
2022-11-21T23:53:15.347Z,23.47
2022-11-21T23:55:43.941Z,21.80
2022-11-21T23:58:12.302Z,22.90
